Time;durP1;ratioP1;P1;durP2;ratioP2;P2;SDS_P1;SDS_P2;PMS_P1;PMS_P2;Temp;Humidity;BMP_temperature;BMP_pressure;BME280_temperature;BME280_humidity;BME280_pressure;Samples;Min_cycle;Max_cycle;Signal;HPM_P1;HPM_P2
2022/02/24 00:02:18;;;;;;;5.50;1.87;;;;;;;2.28;55.45;99326.25;5046798;28;20129;-76
2022/02/24 00:04:44;;;;;;;5.03;2.00;;;;;;;2.17;55.52;99319.75;5044908;28;20049;-77
2022/02/24 00:07:10;;;;;;;5.50;2.10;;;;;;;2.21;55.61;99329.03;5048261;28;20095;-76
2022/02/24 00:09:36;;;;;;;4.80;2.13;;;;;;;2.19;55.47;99329.25;5048466;28;20119;-76
2022/02/24 00:12:04;;;;;;;6.45;2.13;;;;;;;2.17;55.75;99325.13;5048507;28;20057;-75
2022/02/24 00:14:31;;;;;;;7.97;2.30;;;;;;;2.20;55.77;99330.09;5047738;28;20064;-76
2022/02/24 00:16:58;;;;;;;6.93;2.13;;;;;;;2.18;55.86;99335.72;5045465;28;20128;-76
2022/02/24 00:19:24;;;;;;;9.98;2.05;;;;;;;2.18;55.64;99327.63;5060928;28;20063;-76
2022/02/24 00:21:50;;;;;;;6.05;2.13;;;;;;;2.22;55.87;99333.38;5046705;28;20750;-77
2022/02/24 00:24:16;;;;;;;5.72;2.20;;;;;;;2.21;55.72;99332.53;5047563;28;20525;-76
2022/02/24 00:26:42;;;;;;;5.40;2.00;;;;;;;2.20;55.74;99333.59;5047033;28;20041;-76
2022/02/24 00:29:09;;;;;;;5.60;2.17;;;;;;;2.21;55.82;99346.03;5043144;28;20037;-76
2022/02/24 00:31:35;;;;;;;4.22;2.20;;;;;;;2.26;55.63;99338.09;5042925;28;20521;-76
2022/02/24 00:34:02;;;;;;;6.38;2.50;;;;;;;2.35;55.62;99351.22;5044034;28;20072;-77
2022/02/24 00:36:28;;;;;;;6.72;2.58;;;;;;;2.36;55.44;99342.06;5048299;28;20449;-77
2022/02/24 00:38:55;;;;;;;5.75;2.20;;;;;;;2.27;55.61;99347.00;5045730;28;20051;-77
2022/02/24 00:41:21;;;;;;;7.03;2.38;;;;;;;2.31;55.50;99342.75;5052708;28;20131;-78
2022/02/24 00:43:47;;;;;;;6.35;2.60;;;;;;;2.34;55.53;99353.13;5047906;28;20139;-78
2022/02/24 00:46:13;;;;;;;5.10;1.90;;;;;;;2.31;55.66;99350.84;5044899;28;20103;-77
2022/02/24 00:48:39;;;;;;;4.65;2.08;;;;;;;2.32;55.63;99349.81;5041657;28;20045;-78
2022/02/24 00:51:07;;;;;;;7.93;2.20;;;;;;;2.38;55.46;99357.00;5063053;28;20045;-78
2022/02/24 00:53:33;;;;;;;6.15;2.10;;;;;;;2.33;55.13;99359.53;5043671;28;20075;-78
2022/02/24 00:56:00;;;;;;;6.05;2.25;;;;;;;2.19;54.99;99323.88;5061602;28;20509;-77
2022/02/24 00:58:26;;;;;;;6.40;2.20;;;;;;;2.23;55.09;99337.72;5042348;28;20045;-77
2022/02/24 01:01:11;;;;;;;5.60;2.33;;;;;;;2.38;54.73;99362.38;5048562;28;20056;-77
2022/02/24 01:03:37;;;;;;;4.65;1.90;;;;;;;2.29;54.65;99358.38;5039115;28;20043;-77
2022/02/24 01:06:04;;;;;;;6.78;1.85;;;;;;;2.37;54.57;99363.44;5047458;28;20040;-76
2022/02/24 01:08:31;;;;;;;2.10;1.30;;;;;;;2.35;53.79;99362.03;5046094;28;20065;-77
2022/02/24 01:10:57;;;;;;;4.00;1.25;;;;;;;2.33;53.24;99359.53;5047852;28;20045;-78
2022/02/24 01:13:23;;;;;;;2.30;1.20;;;;;;;2.29;52.76;99365.66;5063158;28;20049;-78
2022/02/24 01:15:49;;;;;;;4.75;1.90;;;;;;;2.32;52.62;99366.00;5029291;28;20447;-79
2022/02/24 01:18:16;;;;;;;4.40;1.80;;;;;;;2.33;52.70;99364.94;5050672;28;20049;-78
2022/02/24 01:20:42;;;;;;;3.50;1.50;;;;;;;2.33;52.65;99364.13;5052618;28;20053;-78
2022/02/24 01:23:09;;;;;;;3.25;1.70;;;;;;;2.31;53.21;99375.16;5042925;28;20502;-78
2022/02/24 01:25:36;;;;;;;5.17;1.80;;;;;;;2.29;53.44;99381.84;5048367;28;20091;-79
2022/02/24 01:28:02;;;;;;;4.28;1.90;;;;;;;2.33;53.30;99383.81;5043994;28;20045;-78
2022/02/24 01:30:29;;;;;;;3.03;1.50;;;;;;;2.27;52.99;99390.16;5044020;28;20526;-78
2022/02/24 01:32:55;;;;;;;2.35;1.35;;;;;;;2.32;52.58;99392.16;5026963;28;20407;-78
2022/02/24 01:35:22;;;;;;;2.65;1.38;;;;;;;2.29;52.13;99395.34;5047059;28;20048;-78
2022/02/24 01:37:48;;;;;;;2.50;1.30;;;;;;;2.23;51.70;99388.97;5052246;28;20049;-79
2022/02/24 01:40:16;;;;;;;2.80;1.30;;;;;;;2.26;51.71;99393.91;5049226;28;20052;-79
2022/02/24 01:42:44;;;;;;;1.90;1.10;;;;;;;2.21;51.33;99402.69;5050037;28;20060;-79
2022/02/24 01:45:12;;;;;;;3.40;1.60;;;;;;;2.25;51.10;99401.16;5050572;28;20513;-79
2022/02/24 01:47:38;;;;;;;2.90;1.00;;;;;;;2.16;50.95;99399.03;5049295;28;20429;-78
2022/02/24 01:50:06;;;;;;;3.53;1.58;;;;;;;2.13;50.68;99397.63;5050957;28;20045;-79
2022/02/24 01:52:34;;;;;;;1.90;1.20;;;;;;;2.18;50.63;99403.16;5012655;28;20144;-79
2022/02/24 01:55:01;;;;;;;3.85;1.33;;;;;;;2.27;50.54;99409.03;5030472;28;20079;-79
2022/02/24 01:57:28;;;;;;;3.63;1.40;;;;;;;2.26;50.58;99410.09;5050504;28;20497;-79
2022/02/24 01:59:55;;;;;;;2.03;1.10;;;;;;;2.29;50.00;99408.81;5037419;28;20053;-79
2022/02/24 02:02:21;;;;;;;2.15;1.30;;;;;;;2.37;50.10;99412.00;5050467;28;20519;-79
2022/02/24 02:04:48;;;;;;;1.33;1.10;;;;;;;2.30;49.77;99411.28;5050398;28;20085;-79
2022/02/24 02:07:15;;;;;;;1.55;1.00;;;;;;;2.31;49.98;99410.22;5049932;28;20053;-82
2022/02/24 02:09:41;;;;;;;1.55;1.27;;;;;;;2.30;49.73;99413.16;5047434;28;20059;-83
2022/02/24 02:12:08;;;;;;;1.52;1.00;;;;;;;2.25;49.49;99409.25;5042719;28;20069;-83
2022/02/24 02:14:36;;;;;;;2.00;1.00;;;;;;;2.18;49.28;99399.63;5044722;28;20060;-81
2022/02/24 02:17:04;;;;;;;2.42;1.30;;;;;;;2.25;49.59;99416.53;5045544;28;20453;-84
2022/02/24 02:19:30;;;;;;;2.17;1.20;;;;;;;2.18;49.39;99413.09;5049026;28;20037;-81
2022/02/24 02:21:57;;;;;;;4.35;1.45;;;;;;;2.16;49.58;99423.31;5046383;28;20484;-82
2022/02/24 02:24:23;;;;;;;2.97;1.13;;;;;;;2.09;49.77;99426.94;5046587;28;20040;-81
2022/02/24 02:26:50;;;;;;;2.97;1.40;;;;;;;2.15;49.59;99421.66;5049259;28;20057;-81
2022/02/24 02:29:16;;;;;;;4.15;1.45;;;;;;;2.23;49.70;99424.06;5044179;28;20045;-81
2022/02/24 02:31:43;;;;;;;3.07;1.43;;;;;;;2.24;49.82;99429.19;5046653;28;20420;-81
2022/02/24 02:34:12;;;;;;;3.13;1.30;;;;;;;2.24;49.86;99428.38;5064407;28;20473;-82
2022/02/24 02:36:39;;;;;;;2.60;1.50;;;;;;;2.15;50.05;99405.47;5032648;28;20057;-80
2022/02/24 02:39:11;;;;;;;9.88;1.70;;;;;;;2.12;50.16;99418.38;5045963;28;20144;-83
2022/02/24 02:41:42;;;;;;;2.85;1.40;;;;;;;2.11;50.30;99432.91;5045206;28;20049;-83
2022/02/24 02:44:12;;;;;;;3.83;1.30;;;;;;;2.05;50.37;99423.03;5048795;28;20053;-80
2022/02/24 02:46:38;;;;;;;3.08;1.60;;;;;;;2.08;50.41;99422.59;5026794;28;20049;-82
2022/02/24 02:49:04;;;;;;;6.15;1.50;;;;;;;2.03;50.18;99418.91;5046438;28;20128;-81
2022/02/24 02:51:31;;;;;;;2.42;1.20;;;;;;;2.13;50.02;99433.50;5044098;28;20148;-84
2022/02/24 02:53:57;;;;;;;4.43;1.35;;;;;;;2.16;49.97;99439.50;5049256;28;20488;-81
2022/02/24 02:56:24;;;;;;;2.63;1.33;;;;;;;2.16;49.84;99432.22;5047170;28;20057;-81
2022/02/24 02:58:50;;;;;;;2.33;1.20;;;;;;;2.17;49.64;99431.19;5045451;28;20049;-83
2022/02/24 03:01:16;;;;;;;3.80;1.60;;;;;;;2.19;49.70;99439.88;5025710;28;20083;-84
2022/02/24 03:03:43;;;;;;;2.15;1.20;;;;;;;2.16;49.60;99428.69;5045834;28;20513;-82
2022/02/24 03:06:10;;;;;;;2.40;1.40;;;;;;;2.32;49.41;99438.84;5050129;28;20076;-83
2022/02/24 03:08:36;;;;;;;5.43;1.40;;;;;;;2.33;49.31;99453.19;5042586;28;20143;-83
2022/02/24 03:11:02;;;;;;;4.00;1.52;;;;;;;2.33;49.82;99442.38;5027468;28;20053;-84
2022/02/24 03:13:29;;;;;;;5.57;1.70;;;;;;;2.32;49.84;99449.63;5048380;28;20045;-84
2022/02/24 03:15:55;;;;;;;3.22;1.50;;;;;;;2.25;50.00;99455.13;5050901;28;20053;-82
2022/02/24 03:18:23;;;;;;;8.23;1.98;;;;;;;2.14;50.48;99461.31;5026646;28;20045;-82
2022/02/24 03:20:49;;;;;;;5.63;1.73;;;;;;;2.20;50.54;99462.28;5049101;28;20048;-82
2022/02/24 03:23:15;;;;;;;4.30;1.88;;;;;;;2.21;50.91;99461.22;5025396;28;20488;-82
2022/02/24 03:25:42;;;;;;;4.82;2.08;;;;;;;2.21;51.31;99459.34;5029352;28;20080;-81
2022/02/24 03:28:08;;;;;;;5.88;2.60;;;;;;;2.26;51.16;99458.66;5060112;28;20425;-81
2022/02/24 03:30:37;;;;;;;6.82;2.45;;;;;;;2.17;51.81;99458.16;5043805;28;20042;-81
2022/02/24 03:33:05;;;;;;;9.27;2.95;;;;;;;2.15;52.11;99462.13;5022240;28;20056;-80
2022/02/24 03:35:31;;;;;;;;;;;;;;;2.20;52.18;99467.69;5049161;28;20045;-81
2022/02/24 03:38:01;;;;;;;7.00;3.22;;;;;;;2.14;52.36;99477.50;5049895;28;20384;-80
2022/02/24 03:40:27;;;;;;;8.77;2.90;;;;;;;2.14;52.67;99480.19;5024769;28;20140;-80
2022/02/24 03:42:53;;;;;;;9.15;2.63;;;;;;;2.11;52.96;99484.16;5040607;28;20041;-81
2022/02/24 03:45:20;;;;;;;10.68;3.38;;;;;;;2.02;53.11;99472.03;5031890;28;21807;-81
2022/02/24 03:47:46;;;;;;;9.20;2.45;;;;;;;2.06;53.48;99480.50;5043654;28;20429;-81
2022/02/24 03:50:13;;;;;;;8.23;3.30;;;;;;;2.15;53.30;99497.19;5044695;28;20064;-81
2022/02/24 03:52:41;;;;;;;7.20;2.80;;;;;;;2.06;53.79;99497.50;5046822;28;20045;-82
2022/02/24 03:55:10;;;;;;;10.23;3.17;;;;;;;2.08;53.91;99494.56;5031609;28;20531;-82
2022/02/24 03:57:38;;;;;;;8.50;3.20;;;;;;;2.02;53.94;99493.59;5063507;28;20151;-82
2022/02/24 04:00:06;;;;;;;10.95;3.28;;;;;;;2.16;53.87;99513.16;5011284;28;20106;-84
2022/02/24 04:02:39;;;;;;;16.02;3.85;;;;;;;2.14;53.98;99517.97;5025329;28;20049;-83
2022/02/24 04:05:08;;;;;;;10.60;3.70;;;;;;;2.17;53.85;99517.50;5021959;28;20053;-83
2022/02/24 04:07:34;;;;;;;10.60;3.20;;;;;;;2.13;54.34;99525.22;5049698;28;20433;-84
2022/02/24 04:10:03;;;;;;;8.45;3.33;;;;;;;2.20;54.01;99525.13;5048219;28;20406;-80
2022/02/24 04:12:29;;;;;;;8.25;3.10;;;;;;;2.10;54.32;99514.03;5043831;28;20090;-80
2022/02/24 04:14:57;;;;;;;9.50;3.40;;;;;;;2.15;54.27;99519.59;5044320;28;20049;-81
2022/02/24 04:17:23;;;;;;;9.95;3.17;;;;;;;2.18;54.55;99526.41;5048632;28;20531;-81
2022/02/24 04:19:49;;;;;;;8.65;3.50;;;;;;;2.22;54.48;99536.53;5021774;28;20056;-82
2022/02/24 04:22:16;;;;;;;12.90;3.58;;;;;;;2.12;54.65;99533.56;5047120;28;20064;-83
2022/02/24 04:24:42;;;;;;;7.83;3.20;;;;;;;2.07;54.84;99542.31;5009853;28;20472;-81
2022/02/24 04:27:08;;;;;;;10.32;3.72;;;;;;;2.08;54.88;99548.50;5045834;28;20316;-86
2022/02/24 04:29:35;;;;;;;9.52;3.70;;;;;;;2.15;54.93;99553.84;5027747;28;20045;-85
2022/02/24 04:32:02;;;;;;;8.68;3.30;;;;;;;2.11;55.03;99553.47;5039489;28;20041;-85
2022/02/24 04:34:28;;;;;;;9.15;3.55;;;;;;;2.11;55.21;99557.00;5047908;28;20099;-84
2022/02/24 04:36:54;;;;;;;8.93;3.50;;;;;;;2.04;55.16;99548.16;5050275;28;20515;-85
2022/02/24 04:39:21;;;;;;;12.40;3.40;;;;;;;2.13;55.21;99572.97;5045470;28;20048;-85
2022/02/24 04:41:47;;;;;;;8.80;3.33;;;;;;;2.13;55.09;99570.25;5032448;28;20073;-85
2022/02/24 04:44:13;;;;;;;10.75;4.25;;;;;;;2.18;55.07;99589.28;5048870;28;20570;-85
2022/02/24 04:46:40;;;;;;;9.07;3.67;;;;;;;2.19;55.12;99601.72;5043572;28;20049;-84
2022/02/24 04:49:06;;;;;;;8.90;4.05;;;;;;;2.22;55.12;99590.47;5046464;28;20053;-84
2022/02/24 04:51:32;;;;;;;12.90;4.13;;;;;;;2.22;55.18;99584.28;5012902;28;20049;-84
2022/02/24 04:53:58;;;;;;;10.05;4.22;;;;;;;2.16;55.27;99598.66;5044674;28;20049;-84
2022/02/24 04:56:26;;;;;;;9.13;3.80;;;;;;;2.13;55.31;99605.34;5023601;28;20041;-83
2022/02/24 04:58:52;;;;;;;8.93;4.03;;;;;;;2.10;55.45;99601.19;5040476;28;20624;-84
2022/02/24 05:01:18;;;;;;;12.45;4.15;;;;;;;2.06;55.69;99596.47;5043823;28;20110;-82
2022/02/24 05:03:44;;;;;;;9.20;3.60;;;;;;;2.12;55.52;99612.59;5047367;28;20048;-77
2022/02/24 05:06:10;;;;;;;9.73;3.78;;;;;;;2.19;55.56;99609.81;5047310;28;20394;-76
2022/02/24 05:08:36;;;;;;;10.82;3.55;;;;;;;2.18;55.50;99613.56;5050725;28;20057;-77
2022/02/24 05:11:02;;;;;;;11.27;4.10;;;;;;;2.27;55.23;99619.50;5051919;28;20521;-76
2022/02/24 05:13:30;;;;;;;12.63;4.18;;;;;;;2.26;55.39;99620.53;5051981;28;20521;-77
2022/02/24 05:15:56;;;;;;;14.07;4.63;;;;;;;2.23;55.29;99624.50;5051457;28;20056;-77
2022/02/24 05:18:22;;;;;;;10.68;4.00;;;;;;;2.21;55.31;99615.81;5034508;28;20311;-78
2022/02/24 05:20:48;;;;;;;9.13;3.40;;;;;;;2.25;55.23;99635.09;5051687;28;20060;-78
2022/02/24 05:23:15;;;;;;;11.93;3.65;;;;;;;2.21;55.33;99640.09;5064166;28;20045;-78
2022/02/24 05:25:41;;;;;;;11.23;3.92;;;;;;;2.22;55.26;99641.75;5033503;28;20084;-78
2022/02/24 05:28:09;;;;;;;11.32;4.05;;;;;;;2.17;55.37;99646.16;5042855;28;20083;-77
2022/02/24 05:30:37;;;;;;;11.48;4.50;;;;;;;2.20;55.40;99641.16;5024401;28;20045;-77
2022/02/24 05:33:04;;;;;;;10.30;4.50;;;;;;;2.21;55.51;99642.78;5043652;28;20048;-77
2022/02/24 05:35:31;;;;;;;10.82;4.53;;;;;;;2.23;55.45;99650.69;5042477;28;20058;-75
2022/02/24 05:37:57;;;;;;;9.52;4.72;;;;;;;2.28;55.49;99658.09;5045296;28;20099;-76
2022/02/24 05:40:24;;;;;;;12.25;4.65;;;;;;;2.28;55.63;99656.22;5062827;28;20045;-76
2022/02/24 05:42:51;;;;;;;12.27;5.20;;;;;;;2.31;55.48;99650.38;5040822;28;20484;-76
2022/02/24 05:45:17;;;;;;;38.50;5.32;;;;;;;2.37;55.74;99652.19;5048256;28;20044;-76
2022/02/24 05:47:44;;;;;;;12.80;5.68;;;;;;;2.28;55.97;99652.72;5044905;28;20084;-76
2022/02/24 05:50:10;;;;;;;13.60;5.07;;;;;;;2.26;56.16;99651.06;5064037;28;20106;-77
2022/02/24 05:52:37;;;;;;;10.40;4.53;;;;;;;2.35;55.82;99659.69;5040751;28;20068;-77
2022/02/24 05:55:04;;;;;;;10.95;5.20;;;;;;;2.35;55.79;99656.16;5030939;28;20132;-77
2022/02/24 05:57:31;;;;;;;13.05;4.60;;;;;;;2.37;55.97;99662.16;5045666;28;20059;-75
2022/02/24 05:59:58;;;;;;;12.32;4.47;;;;;;;2.35;55.86;99661.53;5026192;28;20052;-77
2022/02/24 06:02:24;;;;;;;12.77;4.20;;;;;;;2.35;56.02;99661.53;5042289;28;20048;-76
2022/02/24 06:04:51;;;;;;;12.73;4.88;;;;;;;2.39;55.87;99657.34;5066016;28;20055;-78
2022/02/24 06:07:17;;;;;;;11.10;4.95;;;;;;;2.35;55.83;99664.25;5034821;28;20049;-77
2022/02/24 06:09:44;;;;;;;14.40;5.70;;;;;;;2.40;55.55;99673.31;5041754;28;20104;-78
2022/02/24 06:12:10;;;;;;;12.13;5.10;;;;;;;2.45;55.66;99669.13;5037220;28;20166;-77
2022/02/24 06:14:37;;;;;;;17.88;5.22;;;;;;;2.40;55.61;99670.63;5018023;28;20083;-77
2022/02/24 06:17:03;;;;;;;13.48;5.72;;;;;;;2.43;55.81;99682.03;5054821;28;20098;-76
2022/02/24 06:19:30;;;;;;;13.60;5.95;;;;;;;2.45;55.63;99675.34;5039959;28;20509;-76
2022/02/24 06:21:57;;;;;;;18.67;8.77;;;;;;;2.46;55.64;99695.06;5033763;28;20061;-76
2022/02/24 06:24:23;;;;;;;17.77;6.55;;;;;;;2.47;55.62;99689.44;5043471;28;20044;-77
2022/02/24 06:26:49;;;;;;;14.52;6.78;;;;;;;2.51;55.56;99701.44;5046048;28;20124;-76
2022/02/24 06:29:15;;;;;;;12.85;5.30;;;;;;;2.50;55.64;99707.09;5014841;28;20049;-77
2022/02/24 06:31:41;;;;;;;12.20;5.35;;;;;;;2.50;55.50;99699.78;5043358;28;20053;-77
2022/02/24 06:34:08;;;;;;;11.68;4.70;;;;;;;2.51;55.59;99693.34;5050341;28;20073;-77
2022/02/24 06:36:34;;;;;;;13.85;5.28;;;;;;;2.51;55.42;99704.13;5050553;28;20513;-76
2022/02/24 06:39:01;;;;;;;11.07;4.65;;;;;;;2.61;55.42;99710.91;5014907;28;20429;-76
2022/02/24 06:41:27;;;;;;;9.88;4.03;;;;;;;2.63;55.35;99715.00;5014431;28;20513;-75
2022/02/24 06:43:54;;;;;;;10.77;4.82;;;;;;;2.47;55.28;99707.50;5042803;28;20056;-76
2022/02/24 06:46:22;;;;;;;12.65;5.47;;;;;;;2.44;55.38;99700.69;5044173;28;20053;-77
2022/02/24 06:48:49;;;;;;;17.02;5.28;;;;;;;2.49;55.39;99714.34;5043495;28;20042;-77
2022/02/24 06:51:15;;;;;;;9.80;4.82;;;;;;;2.54;55.48;99719.88;5032203;28;20046;-77
2022/02/24 06:53:41;;;;;;;11.68;5.25;;;;;;;2.48;55.56;99723.50;5041917;28;20061;-76
2022/02/24 06:56:08;;;;;;;11.07;5.65;;;;;;;2.43;55.81;99720.66;5042040;28;20426;-76
2022/02/24 06:58:34;;;;;;;11.50;5.50;;;;;;;2.50;55.74;99725.97;5046893;28;20680;-75
2022/02/24 07:01:02;;;;;;;11.52;5.35;;;;;;;2.46;55.70;99730.16;5045435;28;20048;-75
2022/02/24 07:03:28;;;;;;;10.90;4.95;;;;;;;2.53;55.50;99728.22;5045651;28;20072;-78
2022/02/24 07:05:55;;;;;;;16.30;5.45;;;;;;;2.52;55.48;99745.47;5041659;28;20098;-77
2022/02/24 07:08:21;;;;;;;19.92;6.15;;;;;;;2.57;55.45;99737.50;5044761;28;20140;-77
2022/02/24 07:10:47;;;;;;;13.98;5.75;;;;;;;2.63;55.29;99736.59;5060579;28;20571;-77
2022/02/24 07:13:14;;;;;;;13.57;6.03;;;;;;;2.67;55.29;99735.13;5049789;28;20501;-78
2022/02/24 07:15:40;;;;;;;12.90;5.53;;;;;;;2.87;54.66;99746.75;5049345;28;20725;-77
2022/02/24 07:18:07;;;;;;;14.07;5.40;;;;;;;2.94;54.47;99744.81;5061736;28;20040;-76
2022/02/24 07:20:33;;;;;;;14.05;5.93;;;;;;;2.78;54.65;99747.06;5032966;28;20084;-75
2022/02/24 07:22:59;;;;;;;18.73;6.30;;;;;;;2.78;54.69;99740.81;5039050;28;20065;-77
2022/02/24 07:25:26;;;;;;;12.68;6.05;;;;;;;2.59;54.96;99730.03;5031272;28;20505;-76
2022/02/24 07:27:53;;;;;;;21.02;5.85;;;;;;;2.68;54.81;99750.28;5035730;28;20045;-76
2022/02/24 07:30:19;;;;;;;13.52;5.90;;;;;;;2.77;54.95;99758.06;5050543;28;20064;-76
2022/02/24 07:32:46;;;;;;;13.80;5.73;;;;;;;2.76;54.97;99754.56;5045184;28;20512;-76
2022/02/24 07:35:12;;;;;;;21.52;5.82;;;;;;;2.73;55.15;99756.88;5049303;28;20052;-76
2022/02/24 07:37:39;;;;;;;13.37;6.33;;;;;;;2.65;55.19;99758.84;5028982;28;20049;-77
2022/02/24 07:40:07;;;;;;;15.30;6.38;;;;;;;2.75;54.97;99760.19;5047351;28;20136;-76
2022/02/24 07:42:34;;;;;;;13.60;5.60;;;;;;;2.63;54.96;99755.50;5031620;28;20045;-78
2022/02/24 07:45:01;;;;;;;13.23;5.72;;;;;;;2.76;54.70;99759.97;5041809;28;20049;-77
2022/02/24 07:47:28;;;;;;;13.25;5.57;;;;;;;2.83;54.25;99757.19;5036133;28;20076;-78
2022/02/24 07:49:54;;;;;;;14.30;5.18;;;;;;;2.77;54.51;99769.72;5037817;28;20103;-76
2022/02/24 07:52:22;;;;;;;18.30;5.75;;;;;;;2.72;54.25;99766.03;5043514;28;20049;-74
2022/02/24 07:54:48;;;;;;;13.45;5.25;;;;;;;2.69;54.28;99770.00;5032828;28;20050;-75
2022/02/24 07:57:15;;;;;;;15.10;5.88;;;;;;;2.67;54.48;99778.34;5064334;28;20053;-75
2022/02/24 07:59:41;;;;;;;13.55;5.47;;;;;;;2.61;54.43;99771.13;5037391;28;20046;-75
2022/02/24 08:02:07;;;;;;;12.82;5.97;;;;;;;2.57;54.21;99760.97;5048181;28;20037;-75
2022/02/24 08:04:34;;;;;;;13.15;5.72;;;;;;;2.84;53.86;99780.44;5026438;28;20043;-75
2022/02/24 08:07:01;;;;;;;13.75;6.47;;;;;;;2.77;54.09;99785.09;5048704;28;20095;-75
2022/02/24 08:09:27;;;;;;;14.82;5.80;;;;;;;2.80;53.83;99780.06;5037912;28;20704;-75
2022/02/24 08:14:38;;;;;;;16.15;5.60;;;;;;;2.78;53.68;99786.72;5038717;28;20060;-76
2022/02/24 08:17:05;;;;;;;16.27;6.38;;;;;;;2.78;53.95;99786.72;5035523;28;20053;-76
2022/02/24 08:19:32;;;;;;;16.88;7.68;;;;;;;2.79;53.98;99785.69;5037921;28;20053;-76
2022/02/24 08:21:59;;;;;;;13.77;6.10;;;;;;;2.84;53.81;99783.97;5039385;28;20451;-74
2022/02/24 08:24:25;;;;;;;12.63;5.80;;;;;;;2.82;53.49;99796.06;5020411;28;20061;-76
2022/02/24 08:26:52;;;;;;;12.82;5.22;;;;;;;2.76;53.31;99780.72;5042264;28;20103;-75
2022/02/24 08:29:18;;;;;;;11.55;5.40;;;;;;;2.62;53.29;99783.56;5049726;28;20076;-74
2022/02/24 08:31:44;;;;;;;13.15;5.40;;;;;;;2.39;53.68;99797.69;5042578;28;20175;-77
2022/02/24 08:34:10;;;;;;;17.23;5.68;;;;;;;2.06;54.56;99794.22;5030262;28;20132;-77
2022/02/24 08:36:37;;;;;;;15.43;6.40;;;;;;;2.16;54.56;99792.88;5030369;28;20411;-77
2022/02/24 08:39:08;;;;;;;15.52;6.22;;;;;;;2.18;54.32;99796.19;5029472;28;20060;-75
2022/02/24 08:41:35;;;;;;;12.93;5.55;;;;;;;2.10;53.97;99813.47;5034645;28;20056;-76
2022/02/24 08:44:01;;;;;;;14.13;5.70;;;;;;;1.96;54.32;99804.66;5048442;28;20132;-75
2022/02/24 08:46:28;;;;;;;19.50;6.30;;;;;;;1.60;55.02;99784.56;5030922;28;20071;-77
2022/02/24 08:48:54;;;;;;;21.77;6.47;;;;;;;1.80;54.75;99814.91;5048395;28;20471;-76
2022/02/24 08:51:20;;;;;;;13.95;6.00;;;;;;;1.89;54.62;99811.97;5028436;28;20103;-77
2022/02/24 08:53:46;;;;;;;14.40;6.05;;;;;;;1.79;54.75;99807.88;5030490;28;20046;-79
2022/02/24 08:56:15;;;;;;;17.48;6.65;;;;;;;1.97;54.21;99807.13;5041095;28;20056;-78
2022/02/24 08:58:41;;;;;;;12.43;5.00;;;;;;;1.95;54.10;99811.94;5031796;28;20045;-78
2022/02/24 09:01:07;;;;;;;16.67;5.18;;;;;;;1.69;54.17;99797.56;5042722;28;20047;-76
2022/02/24 09:03:33;;;;;;;16.05;5.43;;;;;;;1.86;53.81;99793.50;5034158;28;20041;-76
2022/02/24 09:05:59;;;;;;;15.90;6.50;;;;;;;1.76;54.18;99792.13;5035660;28;20053;-77
2022/02/24 09:08:25;;;;;;;17.00;5.95;;;;;;;1.63;54.95;99786.81;5033506;28;20507;-76
2022/02/24 09:10:54;;;;;;;16.48;6.13;;;;;;;1.72;55.08;99800.84;5023002;28;20041;-75
2022/02/24 09:13:21;;;;;;;14.27;6.97;;;;;;;1.70;54.71;99795.66;5045154;28;20041;-76
2022/02/24 09:15:47;;;;;;;14.87;6.60;;;;;;;1.78;54.30;99786.50;5044717;28;20091;-75
2022/02/24 09:18:13;;;;;;;15.52;7.10;;;;;;;1.81;54.09;99788.78;5046312;28;20801;-74
2022/02/24 09:20:41;;;;;;;13.95;5.93;;;;;;;1.88;54.08;99792.25;5040603;28;20069;-78
2022/02/24 09:23:10;;;;;;;14.18;5.82;;;;;;;1.98;53.60;99798.00;5039796;28;20046;-77
2022/02/24 09:25:37;;;;;;;15.13;5.07;;;;;;;1.99;53.61;99796.13;5029340;28;20140;-81
2022/02/24 09:28:03;;;;;;;16.25;5.57;;;;;;;2.04;53.51;99801.69;5040236;28;20076;-77
2022/02/24 09:30:32;;;;;;;14.23;6.10;;;;;;;2.10;53.46;99795.41;5031595;28;20054;-82
2022/02/24 09:32:59;;;;;;;10.63;4.75;;;;;;;2.12;53.25;99801.41;5031378;28;20427;-75
2022/02/24 09:35:25;;;;;;;14.45;5.40;;;;;;;2.17;53.04;99802.63;5029602;28;20556;-75
2022/02/24 09:37:52;;;;;;;15.65;6.22;;;;;;;2.15;52.95;99800.16;5033595;28;20452;-74
2022/02/24 09:40:18;;;;;;;12.52;5.97;;;;;;;2.20;52.85;99800.31;5051952;28;20425;-74
2022/02/24 09:42:44;;;;;;;13.25;6.03;;;;;;;2.22;52.53;99802.81;5045591;28;20073;-74
2022/02/24 09:45:10;;;;;;;15.90;6.65;;;;;;;2.28;52.48;99809.22;5041170;28;20561;-75
2022/02/24 09:47:38;;;;;;;16.35;6.30;;;;;;;2.31;52.07;99797.97;5033299;28;20055;-71
2022/02/24 09:50:06;;;;;;;11.57;5.63;;;;;;;2.28;52.30;99810.03;5030890;28;20045;-71
2022/02/24 09:52:32;;;;;;;16.42;7.07;;;;;;;2.33;52.45;99803.97;5033081;28;20045;-69
2022/02/24 09:54:58;;;;;;;26.40;7.75;;;;;;;2.28;52.37;99796.53;5047363;28;20047;-69
2022/02/24 09:57:24;;;;;;;16.15;7.70;;;;;;;2.30;52.41;99804.41;5044482;28;20052;-69
2022/02/24 09:59:50;;;;;;;18.45;6.65;;;;;;;2.31;51.86;99801.47;5050819;28;20052;-71
2022/02/24 10:02:17;;;;;;;19.02;6.38;;;;;;;2.32;52.02;99800.44;5043429;28;20224;-68
2022/02/24 10:05:06;;;;;;;16.25;6.05;;;;;;;2.29;51.68;99817.06;5065286;28;20061;-69
2022/02/24 10:07:36;;;;;;;17.05;6.40;;;;;;;2.35;51.73;99816.22;5050502;28;20064;-68
2022/02/24 10:10:21;;;;;;;14.60;6.70;;;;;;;2.50;51.12;99823.97;5036951;28;20529;-69
2022/02/24 10:12:59;;;;;;;14.55;5.47;;;;;;;2.52;50.92;99821.84;5045365;28;20056;-66
2022/02/24 10:15:25;;;;;;;16.25;6.53;;;;;;;2.51;50.92;99827.50;5032562;28;20060;-70
2022/02/24 10:18:04;;;;;;;37.47;11.20;;;;;;;2.50;50.78;99820.44;5031526;28;20056;-68
2022/02/24 10:20:38;;;;;;;38.78;12.60;;;;;;;2.58;50.50;99825.56;5057109;28;20084;-68
2022/02/24 10:23:05;;;;;;;46.65;13.35;;;;;;;2.66;50.19;99827.16;5045967;28;20041;-67
2022/02/24 10:25:37;;;;;;;38.58;11.35;;;;;;;2.62;49.90;99831.34;5044734;28;20056;-75
2022/02/24 10:28:05;;;;;;;39.13;8.88;;;;;;;2.65;49.59;99830.91;5031280;28;20064;-76
2022/02/24 10:30:31;;;;;;;17.48;6.80;;;;;;;2.54;49.39;99798.16;5031413;28;20049;-75
2022/02/24 10:33:00;;;;;;;21.45;6.28;;;;;;;2.68;48.75;99809.69;5031495;28;20060;-76
2022/02/24 10:35:28;;;;;;;18.15;6.22;;;;;;;2.78;48.97;99819.13;5033246;28;20099;-76
2022/02/24 10:37:58;;;;;;;16.40;6.40;;;;;;;2.84;48.48;99827.19;5052116;28;20056;-75
2022/02/24 10:40:26;;;;;;;14.57;5.30;;;;;;;2.88;48.27;99826.72;5050837;28;20052;-76
2022/02/24 10:42:52;;;;;;;16.15;6.30;;;;;;;2.89;47.95;99815.72;5052371;28;20184;-75
2022/02/24 10:45:18;;;;;;;14.57;5.93;;;;;;;2.91;47.91;99823.59;5047522;28;20049;-75
2022/02/24 10:47:58;;;;;;;16.60;6.13;;;;;;;2.89;47.73;99815.72;5039179;28;20459;-75
2022/02/24 10:50:55;;;;;;;17.80;5.72;;;;;;;3.01;47.73;99821.19;5050297;28;20512;-75
2022/02/24 10:53:25;;;;;;;12.40;5.60;;;;;;;3.02;47.50;99827.44;5051530;28;20048;-75
2022/02/24 10:55:59;;;;;;;11.13;4.65;;;;;;;3.07;47.67;99822.16;5037136;28;20057;-75
2022/02/24 10:58:27;;;;;;;19.55;5.70;;;;;;;3.00;47.76;99822.25;5021703;28;20048;-76
2022/02/24 11:01:11;;;;;;;12.63;5.38;;;;;;;3.08;47.47;99821.97;5035616;28;20053;-75
2022/02/24 11:03:40;;;;;;;13.65;4.45;;;;;;;3.05;47.75;99819.72;5039895;28;20564;-75
2022/02/24 11:06:08;;;;;;;14.52;4.65;;;;;;;3.14;47.54;99827.50;5043687;28;20048;-75
2022/02/24 11:08:36;;;;;;;16.63;6.32;;;;;;;3.19;47.59;99833.03;5051429;28;20110;-75
2022/02/24 11:11:04;;;;;;;16.35;6.18;;;;;;;3.19;47.64;99820.38;5048997;28;20075;-74
2022/02/24 11:13:31;;;;;;;16.92;7.50;;;;;;;3.22;47.55;99833.44;5044876;28;20056;-75
2022/02/24 11:15:59;;;;;;;15.38;5.80;;;;;;;3.19;47.51;99835.75;5049395;28;20544;-75
2022/02/24 11:18:25;;;;;;;17.95;5.38;;;;;;;3.16;47.60;99834.34;5049904;28;20452;-74
2022/02/24 11:20:53;;;;;;;15.17;5.83;;;;;;;3.27;47.14;99838.16;5050805;28;20052;-75
2022/02/24 11:23:22;;;;;;;17.50;5.75;;;;;;;3.22;47.22;99841.53;5046280;28;20567;-75
2022/02/24 11:25:56;;;;;;;14.88;5.53;;;;;;;3.26;47.13;99848.13;5044872;28;20064;-75
2022/02/24 11:28:23;;;;;;;14.35;5.20;;;;;;;3.26;47.24;99855.44;5047506;28;20057;-76
2022/02/24 11:30:56;;;;;;;16.08;5.07;;;;;;;3.22;47.33;99854.25;5044878;28;20039;-75
2022/02/24 11:33:23;;;;;;;16.17;6.25;;;;;;;3.16;46.99;99834.34;5047961;28;20055;-75
2022/02/24 11:36:07;;;;;;;19.33;5.35;;;;;;;3.25;46.95;99851.88;5044455;28;20052;-75
2022/02/24 11:38:35;;;;;;;14.88;5.65;;;;;;;3.26;47.20;99836.50;5047593;28;20502;-75
2022/02/24 11:41:07;;;;;;;12.68;5.22;;;;;;;3.31;47.06;99844.75;5044313;28;20063;-75